createdAt,value
2023-03-29T00:01:52.248Z,1.52
2023-03-29T00:03:54.207Z,1.50
2023-03-29T00:06:06.326Z,1.70
2023-03-29T00:08:09.105Z,1.10
2023-03-29T00:10:12.823Z,1.77
2023-03-29T00:12:14.561Z,1.65
2023-03-29T00:24:24.027Z,1.58
2023-03-29T00:26:25.944Z,1.67
2023-03-29T00:28:27.685Z,2.20
2023-03-29T00:30:29.385Z,1.98
2023-03-29T00:32:31.866Z,1.45
2023-03-29T00:34:36.153Z,1.50
2023-03-29T00:50:10.274Z,1.60
2023-03-29T00:52:14.023Z,1.48
2023-03-29T00:54:18.718Z,1.60
2023-03-29T01:03:13.947Z,2.00
2023-03-29T01:05:39.344Z,1.70
2023-03-29T01:07:58.070Z,1.85
2023-03-29T01:10:05.158Z,1.58
2023-03-29T01:12:19.713Z,1.90
2023-03-29T01:14:37.110Z,1.45
2023-03-29T01:16:39.532Z,1.55
2023-03-29T01:18:42.187Z,1.42
2023-03-29T01:21:42.161Z,1.92
2023-03-29T01:27:08.076Z,1.73
2023-03-29T01:29:23.024Z,1.60
2023-03-29T01:31:28.919Z,1.30
2023-03-29T01:33:45.324Z,1.98
2023-03-29T01:36:02.354Z,1.85
2023-03-29T01:38:31.329Z,1.80
2023-03-29T01:40:33.790Z,2.50
2023-03-29T01:42:58.496Z,1.98
2023-03-29T01:45:25.322Z,1.65
2023-03-29T01:47:50.418Z,1.95
2023-03-29T01:50:02.010Z,2.20
2023-03-29T01:52:17.256Z,2.08
2023-03-29T01:54:20.166Z,2.22
2023-03-29T01:56:24.965Z,2.13
2023-03-29T01:58:31.492Z,1.70
2023-03-29T02:00:34.383Z,2.25
2023-03-29T02:02:38.653Z,2.15
2023-03-29T02:04:50.134Z,1.83
2023-03-29T02:06:54.278Z,2.00
2023-03-29T02:08:56.083Z,1.95
2023-03-29T02:10:57.946Z,1.75
2023-03-29T02:12:59.753Z,1.63
2023-03-29T02:15:01.408Z,2.13
2023-03-29T02:17:27.504Z,2.20
2023-03-29T02:19:29.267Z,1.65
2023-03-29T02:21:37.081Z,1.52
2023-03-29T02:23:45.466Z,2.50
2023-03-29T02:25:48.243Z,3.08
2023-03-29T02:27:50.618Z,2.47
2023-03-29T02:29:52.336Z,2.60
2023-03-29T02:32:24.016Z,2.13
2023-03-29T02:34:26.834Z,2.13
2023-03-29T02:36:34.680Z,1.63
2023-03-29T02:38:37.767Z,2.03
2023-03-29T02:40:40.747Z,1.92
2023-03-29T02:42:44.590Z,1.98
2023-03-29T02:44:50.112Z,2.97
2023-03-29T02:46:56.407Z,1.60
2023-03-29T02:48:58.668Z,1.83
2023-03-29T02:51:03.308Z,1.73
2023-03-29T02:53:10.056Z,1.83
2023-03-29T02:55:15.149Z,2.63
2023-03-29T02:57:17.247Z,1.60
2023-03-29T02:59:22.660Z,1.60
2023-03-29T03:01:24.730Z,2.05
2023-03-29T03:03:27.508Z,1.40
2023-03-29T03:05:29.294Z,1.80
2023-03-29T03:07:30.948Z,1.88
2023-03-29T03:09:35.585Z,1.92
2023-03-29T03:11:37.328Z,1.65
2023-03-29T03:13:38.987Z,1.25
2023-03-29T03:15:42.930Z,1.38
2023-03-29T03:17:44.779Z,1.98
2023-03-29T03:19:46.604Z,1.80
2023-03-29T03:21:48.347Z,1.80
2023-03-29T03:23:50.418Z,2.13
2023-03-29T03:25:52.869Z,1.50
2023-03-29T03:27:54.529Z,2.08
2023-03-29T03:29:56.185Z,1.58
2023-03-29T03:31:57.907Z,1.55
2023-03-29T03:33:59.956Z,2.00
2023-03-29T03:36:05.358Z,1.42
2023-03-29T03:38:07.409Z,1.52
2023-03-29T03:40:11.866Z,2.65
2023-03-29T03:42:13.858Z,1.52
2023-03-29T03:44:15.852Z,1.73
2023-03-29T03:46:17.998Z,1.60
2023-03-29T03:48:20.633Z,1.60
2023-03-29T03:50:23.095Z,1.55
2023-03-29T03:52:27.882Z,1.40
2023-03-29T03:54:29.478Z,1.70
2023-03-29T03:56:31.187Z,1.52
2023-03-29T03:58:32.871Z,1.63
2023-03-29T04:00:34.662Z,1.73
2023-03-29T04:02:44.877Z,2.97
2023-03-29T04:04:46.660Z,3.20
2023-03-29T04:06:48.336Z,2.83
2023-03-29T04:08:49.979Z,3.35
2023-03-29T04:10:56.265Z,2.38
2023-03-29T04:13:05.319Z,3.10
2023-03-29T04:15:08.006Z,2.67
2023-03-29T04:17:09.723Z,2.70
2023-03-29T04:19:11.942Z,2.63
2023-03-29T04:21:13.639Z,2.90
2023-03-29T04:23:15.463Z,2.95
2023-03-29T04:25:17.465Z,2.28
2023-03-29T04:27:19.416Z,1.92
2023-03-29T04:29:21.365Z,1.88
2023-03-29T04:31:23.115Z,2.10
2023-03-29T04:33:24.863Z,2.13
2023-03-29T04:35:27.208Z,1.75
2023-03-29T04:37:30.234Z,1.80
2023-03-29T04:39:34.107Z,1.67
2023-03-29T04:41:35.901Z,2.00
2023-03-29T04:43:41.435Z,2.10
2023-03-29T04:45:43.346Z,1.90
2023-03-29T04:47:46.155Z,2.97
2023-03-29T04:49:47.888Z,2.75
2023-03-29T04:51:49.763Z,2.72
2023-03-29T04:53:51.675Z,2.60
2023-03-29T04:55:55.613Z,2.38
2023-03-29T04:57:57.407Z,2.90
2023-03-29T04:59:59.062Z,3.40
2023-03-29T05:02:03.010Z,2.60
2023-03-29T05:04:05.113Z,2.15
2023-03-29T05:06:09.265Z,2.60
2023-03-29T05:08:10.877Z,2.03
2023-03-29T05:10:12.568Z,3.17
2023-03-29T05:12:14.358Z,3.08
2023-03-29T05:14:16.158Z,2.88
2023-03-29T05:16:18.880Z,3.15
2023-03-29T05:18:34.692Z,2.28
2023-03-29T05:20:48.724Z,2.47
2023-03-29T05:22:51.135Z,2.30
2023-03-29T05:24:52.952Z,2.38
2023-03-29T05:26:54.756Z,2.42
2023-03-29T05:28:57.046Z,2.72
2023-03-29T05:31:04.533Z,2.40
2023-03-29T05:33:07.023Z,2.38
2023-03-29T05:35:09.507Z,2.88
2023-03-29T05:37:11.183Z,2.15
2023-03-29T05:39:12.820Z,2.58
2023-03-29T05:41:16.019Z,1.95
2023-03-29T05:43:18.022Z,1.90
2023-03-29T05:45:20.328Z,2.25
2023-03-29T05:47:21.975Z,1.80
2023-03-29T05:49:23.852Z,3.67
2023-03-29T05:51:25.999Z,2.00
2023-03-29T05:53:28.466Z,1.75
2023-03-29T05:55:33.341Z,2.30
2023-03-29T05:57:39.040Z,2.20
2023-03-29T05:59:44.133Z,2.65
2023-03-29T06:01:48.620Z,3.03
2023-03-29T06:03:54.745Z,2.70
2023-03-29T06:06:03.230Z,4.18
2023-03-29T06:08:06.884Z,6.20
2023-03-29T06:10:12.331Z,8.38
2023-03-29T06:12:17.255Z,5.95
2023-03-29T06:14:21.464Z,5.65
2023-03-29T06:16:23.764Z,4.90
2023-03-29T06:18:29.197Z,5.03
2023-03-29T06:20:35.023Z,3.55
2023-03-29T06:22:45.782Z,3.58
2023-03-29T06:24:49.957Z,2.95
2023-03-29T06:26:55.416Z,3.78
2023-03-29T06:28:57.590Z,4.00
2023-03-29T06:31:03.764Z,3.55
2023-03-29T06:33:08.742Z,3.20
2023-03-29T06:35:13.092Z,3.33
2023-03-29T06:37:14.913Z,4.20
2023-03-29T06:39:19.894Z,4.20
2023-03-29T06:41:21.788Z,3.75
2023-03-29T06:43:23.586Z,3.35
2023-03-29T06:45:29.522Z,3.97
2023-03-29T06:47:33.067Z,3.40
2023-03-29T06:49:34.875Z,4.28
2023-03-29T06:51:37.749Z,3.60
2023-03-29T06:53:39.485Z,3.33
2023-03-29T06:55:44.564Z,3.60
2023-03-29T06:57:46.678Z,3.33
2023-03-29T06:59:48.500Z,3.67
2023-03-29T07:01:55.280Z,4.20
2023-03-29T07:03:57.883Z,3.03
2023-03-29T07:06:03.631Z,3.83
2023-03-29T07:08:05.578Z,4.03
2023-03-29T07:10:17.062Z,4.03
2023-03-29T07:12:22.832Z,4.35
2023-03-29T07:14:30.176Z,3.65
2023-03-29T07:16:32.919Z,3.60
2023-03-29T07:18:41.805Z,3.38
2023-03-29T07:20:43.761Z,3.63
2023-03-29T07:22:47.293Z,3.38
2023-03-29T07:24:49.641Z,3.63
2023-03-29T07:27:04.514Z,3.90
2023-03-29T07:29:06.617Z,3.75
2023-03-29T07:31:11.319Z,3.83
2023-03-29T07:33:13.362Z,3.95
2023-03-29T07:35:15.908Z,3.70
2023-03-29T07:37:17.650Z,4.25
2023-03-29T07:39:19.424Z,3.55
2023-03-29T07:41:21.486Z,3.53
2023-03-29T07:43:24.388Z,4.05
2023-03-29T07:45:28.730Z,4.20
2023-03-29T07:47:31.207Z,4.07
2023-03-29T07:49:34.790Z,3.42
2023-03-29T07:51:37.260Z,4.13
2023-03-29T07:53:39.053Z,4.28
2023-03-29T07:55:54.832Z,4.72
2023-03-29T07:57:57.122Z,4.32
2023-03-29T07:59:58.988Z,4.13
2023-03-29T08:02:00.863Z,4.05
2023-03-29T08:04:03.099Z,3.85
2023-03-29T08:06:05.137Z,4.32
2023-03-29T08:08:07.529Z,3.70
2023-03-29T08:10:11.734Z,3.92
2023-03-29T08:12:13.888Z,5.07
2023-03-29T08:14:15.892Z,4.32
2023-03-29T08:16:18.700Z,4.30
2023-03-29T08:18:21.114Z,4.00
2023-03-29T08:20:22.765Z,4.20
2023-03-29T08:22:24.859Z,4.85
2023-03-29T08:24:26.622Z,3.88
2023-03-29T08:26:34.068Z,4.40
2023-03-29T08:28:35.972Z,4.85
2023-03-29T08:30:37.613Z,4.32
2023-03-29T08:32:39.433Z,5.20
2023-03-29T08:34:41.209Z,4.28
2023-03-29T08:36:42.804Z,4.20
2023-03-29T08:38:46.315Z,3.92
2023-03-29T08:40:48.966Z,3.88
2023-03-29T08:43:14.937Z,3.53
2023-03-29T08:45:35.582Z,3.20
2023-03-29T08:47:59.648Z,4.72
2023-03-29T08:50:01.586Z,3.53
2023-03-29T08:52:09.948Z,4.53
2023-03-29T08:54:18.877Z,3.83
2023-03-29T08:56:28.009Z,3.20
2023-03-29T08:58:32.770Z,3.42
2023-03-29T09:00:39.436Z,3.38
2023-03-29T09:02:42.318Z,2.10
2023-03-29T09:04:44.002Z,2.70
2023-03-29T09:06:45.852Z,2.75
2023-03-29T09:08:49.572Z,2.42
2023-03-29T09:11:18.927Z,3.38
2023-03-29T09:13:35.381Z,2.60
2023-03-29T09:15:45.821Z,2.65
2023-03-29T09:17:59.742Z,2.90
2023-03-29T09:20:04.354Z,2.42
2023-03-29T09:22:16.915Z,3.40
2023-03-29T09:24:46.386Z,2.70
2023-03-29T09:26:53.370Z,3.33
2023-03-29T09:29:04.589Z,3.03
2023-03-29T09:31:18.929Z,2.20
2023-03-29T09:33:42.897Z,2.88
2023-03-29T09:35:53.656Z,2.03
2023-03-29T09:37:55.715Z,2.28
2023-03-29T09:39:57.756Z,2.17
2023-03-29T09:42:09.146Z,2.80
2023-03-29T09:44:28.213Z,2.60
2023-03-29T09:46:42.446Z,2.50
2023-03-29T09:48:47.290Z,2.60
2023-03-29T09:50:51.419Z,2.78
2023-03-29T09:52:53.132Z,2.78
2023-03-29T09:54:54.830Z,2.78
2023-03-29T09:56:57.728Z,2.65
2023-03-29T09:58:59.878Z,2.53
2023-03-29T10:01:04.960Z,2.83
2023-03-29T10:03:10.175Z,2.40
2023-03-29T10:05:16.145Z,1.90
2023-03-29T10:07:21.440Z,1.88
2023-03-29T10:09:27.594Z,1.88
2023-03-29T10:11:33.113Z,1.77
2023-03-29T10:13:37.526Z,2.03
2023-03-29T10:15:40.298Z,1.73
2023-03-29T10:17:43.226Z,1.98
2023-03-29T10:19:53.039Z,1.70
2023-03-29T10:21:55.273Z,1.80
2023-03-29T10:23:59.410Z,1.58
2023-03-29T10:26:04.332Z,1.48
2023-03-29T10:28:14.809Z,1.67
2023-03-29T10:30:22.380Z,2.08
2023-03-29T10:32:37.767Z,1.60
2023-03-29T10:34:39.618Z,2.28
2023-03-29T10:36:51.206Z,1.45
2023-03-29T10:38:54.659Z,1.48
2023-03-29T10:41:10.131Z,1.70
2023-03-29T10:43:24.771Z,2.13
2023-03-29T10:45:36.620Z,2.00
2023-03-29T10:47:38.518Z,1.77
2023-03-29T10:49:42.872Z,1.80
2023-03-29T10:51:49.584Z,2.28
2023-03-29T10:53:51.890Z,1.83
2023-03-29T10:56:08.512Z,1.77
2023-03-29T10:58:25.777Z,2.20
2023-03-29T11:00:49.188Z,1.40
2023-03-29T11:03:14.439Z,1.65
2023-03-29T11:05:37.261Z,2.40
2023-03-29T11:08:05.790Z,1.52
2023-03-29T11:10:34.197Z,2.00
2023-03-29T11:12:43.690Z,1.70
2023-03-29T11:14:45.588Z,1.90
2023-03-29T11:17:13.255Z,1.80
2023-03-29T11:19:35.907Z,1.92
2023-03-29T11:21:43.219Z,1.67
2023-03-29T11:24:06.219Z,1.65
2023-03-29T11:26:29.647Z,1.75
2023-03-29T11:28:56.243Z,1.73
2023-03-29T11:31:17.063Z,2.28
2023-03-29T11:33:47.570Z,1.40
2023-03-29T11:35:52.954Z,1.88
2023-03-29T11:38:33.636Z,1.85
2023-03-29T11:40:54.231Z,1.52
2023-03-29T11:42:58.942Z,1.73
2023-03-29T11:45:03.190Z,2.03
2023-03-29T11:47:15.562Z,1.90
2023-03-29T11:49:44.736Z,1.75
2023-03-29T11:51:54.467Z,1.58
2023-03-29T11:54:30.100Z,1.85
2023-03-29T11:56:37.122Z,1.60
2023-03-29T11:58:42.652Z,1.40
2023-03-29T12:01:01.335Z,1.58
2023-03-29T12:03:10.372Z,1.67
2023-03-29T12:05:18.391Z,1.80
2023-03-29T12:07:33.134Z,1.83
2023-03-29T12:09:43.045Z,1.77
2023-03-29T12:11:53.120Z,1.90
2023-03-29T12:14:05.452Z,1.85
2023-03-29T12:16:26.646Z,1.70
2023-03-29T12:18:30.812Z,2.25
2023-03-29T12:20:35.605Z,1.70
2023-03-29T12:22:37.742Z,1.83
2023-03-29T12:24:41.902Z,1.70
2023-03-29T12:26:55.494Z,2.28
2023-03-29T12:29:39.145Z,1.40
2023-03-29T12:32:06.977Z,1.95
2023-03-29T12:34:35.632Z,2.17
2023-03-29T12:36:43.323Z,1.48
2023-03-29T12:38:45.343Z,2.03
2023-03-29T12:41:16.913Z,1.95
2023-03-29T12:43:27.586Z,2.03
2023-03-29T12:45:40.476Z,1.80
2023-03-29T12:47:44.238Z,2.03
2023-03-29T12:49:47.399Z,1.80
2023-03-29T12:51:49.186Z,1.90
2023-03-29T12:53:52.980Z,1.60
2023-03-29T12:56:14.968Z,2.00
2023-03-29T12:58:53.856Z,2.13
2023-03-29T13:01:21.532Z,2.35
2023-03-29T13:03:40.991Z,2.03
2023-03-29T13:05:44.455Z,1.70
2023-03-29T13:07:50.279Z,1.60
2023-03-29T13:09:54.600Z,1.90
2023-03-29T13:12:11.347Z,1.38
2023-03-29T13:14:19.057Z,1.55
2023-03-29T13:16:32.817Z,1.77
2023-03-29T13:19:08.727Z,1.70
2023-03-29T13:21:25.295Z,1.13
2023-03-29T13:23:45.921Z,1.38
2023-03-29T13:26:02.608Z,1.70
2023-03-29T13:28:38.183Z,1.35
2023-03-29T13:30:45.261Z,1.73
2023-03-29T13:33:41.478Z,1.42
2023-03-29T13:35:51.968Z,1.67
2023-03-29T13:38:18.215Z,1.10
2023-03-29T13:40:42.931Z,1.13
2023-03-29T13:42:59.792Z,1.25
2023-03-29T13:45:26.357Z,1.83
2023-03-29T13:47:33.753Z,1.45
2023-03-29T13:49:36.048Z,1.50
2023-03-29T13:51:40.471Z,1.60
2023-03-29T13:53:46.408Z,1.50
2023-03-29T13:55:49.330Z,1.58
2023-03-29T13:58:01.488Z,1.77
2023-03-29T14:00:20.153Z,1.45
2023-03-29T14:02:48.112Z,1.67
2023-03-29T14:04:52.427Z,2.17
2023-03-29T14:06:56.114Z,1.60
2023-03-29T14:09:06.499Z,1.10
2023-03-29T14:11:17.907Z,1.60
2023-03-29T14:13:22.671Z,1.70
2023-03-29T14:15:27.168Z,1.83
2023-03-29T14:17:29.203Z,1.73
2023-03-29T14:19:33.859Z,1.30
2023-03-29T14:21:35.985Z,1.50
2023-03-29T14:23:38.217Z,1.35
2023-03-29T14:25:40.826Z,1.45
2023-03-29T14:27:54.983Z,1.58
2023-03-29T14:29:57.087Z,1.30
2023-03-29T14:32:11.907Z,1.50
2023-03-29T14:34:16.040Z,1.42
2023-03-29T14:36:18.136Z,1.45
2023-03-29T14:38:23.457Z,1.70
2023-03-29T14:40:27.604Z,1.50
2023-03-29T14:42:29.471Z,1.55
2023-03-29T14:44:33.286Z,1.17
2023-03-29T14:46:35.349Z,1.23
2023-03-29T14:48:37.611Z,1.55
2023-03-29T14:50:39.435Z,1.13
2023-03-29T14:52:41.440Z,1.45
2023-03-29T14:54:47.411Z,1.50
2023-03-29T14:56:50.195Z,1.50
2023-03-29T14:58:55.337Z,1.35
2023-03-29T15:00:57.090Z,1.30
2023-03-29T15:03:01.056Z,1.38
2023-03-29T15:05:07.711Z,1.40
2023-03-29T15:07:09.773Z,1.33
2023-03-29T15:09:19.246Z,1.50
2023-03-29T15:11:23.321Z,1.15
2023-03-29T15:13:25.823Z,2.20
2023-03-29T15:15:27.719Z,1.50
2023-03-29T15:17:46.988Z,1.58
2023-03-29T15:19:59.066Z,1.80
2023-03-29T15:22:05.456Z,1.95
2023-03-29T15:24:22.258Z,1.42
2023-03-29T15:26:35.301Z,1.50
2023-03-29T15:28:49.644Z,1.55
2023-03-29T15:31:06.730Z,2.10
2023-03-29T15:33:20.428Z,2.88
2023-03-29T15:35:25.760Z,2.08
2023-03-29T15:37:27.974Z,1.30
2023-03-29T15:39:29.978Z,1.63
2023-03-29T15:41:31.846Z,1.75
2023-03-29T15:43:33.771Z,1.77
2023-03-29T15:45:35.435Z,1.35
2023-03-29T15:47:37.101Z,1.67
2023-03-29T15:49:39.116Z,1.60
2023-03-29T15:51:41.314Z,1.70
2023-03-29T15:53:42.972Z,1.55
2023-03-29T15:55:47.725Z,1.38
2023-03-29T15:57:49.596Z,1.75
2023-03-29T15:59:51.561Z,1.75
2023-03-29T16:01:54.654Z,1.40
2023-03-29T16:03:58.325Z,1.50
2023-03-29T16:06:36.800Z,1.60
2023-03-29T16:08:57.132Z,1.60
2023-03-29T16:11:13.227Z,0.98
2023-03-29T16:13:16.376Z,2.00
2023-03-29T16:15:20.844Z,1.40
2023-03-29T16:17:22.546Z,1.60
2023-03-29T16:19:25.779Z,1.55
2023-03-29T16:21:29.265Z,1.52
2023-03-29T16:23:31.478Z,1.50
2023-03-29T16:25:33.161Z,1.75
2023-03-29T16:27:34.779Z,1.70
2023-03-29T16:29:36.622Z,1.80
2023-03-29T16:31:38.925Z,1.50
2023-03-29T16:33:41.531Z,2.35
2023-03-29T16:35:43.268Z,1.98
2023-03-29T16:37:45.024Z,2.38
2023-03-29T16:39:49.846Z,1.80
2023-03-29T16:41:51.444Z,1.98
2023-03-29T16:43:53.173Z,2.08
2023-03-29T16:45:54.902Z,2.15
2023-03-29T16:47:57.087Z,1.90
2023-03-29T16:49:58.851Z,1.63
2023-03-29T16:52:01.020Z,2.75
2023-03-29T16:54:02.712Z,2.00
2023-03-29T16:56:04.894Z,1.90
2023-03-29T16:58:07.179Z,1.67
2023-03-29T17:00:10.986Z,2.22
2023-03-29T17:02:12.621Z,1.50
2023-03-29T17:04:14.329Z,1.48
2023-03-29T17:06:16.365Z,1.30
2023-03-29T17:08:19.340Z,1.48
2023-03-29T17:10:21.941Z,2.08
2023-03-29T17:12:23.954Z,1.35
2023-03-29T17:14:26.568Z,2.05
2023-03-29T17:16:29.226Z,1.95
2023-03-29T17:18:31.033Z,1.60
2023-03-29T17:20:32.605Z,1.10
2023-03-29T17:22:35.668Z,1.40
2023-03-29T17:24:37.321Z,1.20
2023-03-29T17:26:39.090Z,1.17
2023-03-29T17:28:40.705Z,1.50
2023-03-29T17:30:46.184Z,1.33
2023-03-29T17:32:47.985Z,1.30
2023-03-29T17:34:50.020Z,1.45
2023-03-29T17:36:53.445Z,2.13
2023-03-29T17:38:57.649Z,2.45
2023-03-29T17:40:59.591Z,2.42
2023-03-29T17:43:01.473Z,1.50
2023-03-29T17:45:03.534Z,1.77
2023-03-29T17:47:05.474Z,1.67
2023-03-29T17:49:07.351Z,1.65
2023-03-29T17:51:08.982Z,2.47
2023-03-29T17:53:10.632Z,2.55
2023-03-29T17:55:13.749Z,3.40
2023-03-29T17:57:16.333Z,5.70
2023-03-29T17:59:18.670Z,4.55
2023-03-29T18:01:20.987Z,4.07
2023-03-29T18:03:22.773Z,2.47
2023-03-29T18:05:24.612Z,2.25
2023-03-29T18:07:26.330Z,2.00
2023-03-29T18:09:31.182Z,1.73
2023-03-29T18:11:33.095Z,1.60
2023-03-29T18:13:34.885Z,1.88
2023-03-29T18:15:36.588Z,1.60
2023-03-29T18:17:38.345Z,1.20
2023-03-29T18:19:40.036Z,2.05
2023-03-29T18:21:41.713Z,4.10
2023-03-29T18:23:47.935Z,2.38
2023-03-29T18:25:49.722Z,1.73
2023-03-29T18:27:51.522Z,1.40
2023-03-29T18:29:55.328Z,1.85
2023-03-29T18:31:57.055Z,2.38
2023-03-29T18:33:58.978Z,1.83
2023-03-29T18:36:05.094Z,1.90
2023-03-29T18:38:07.449Z,1.88
2023-03-29T18:40:10.088Z,1.08
2023-03-29T18:42:12.807Z,1.48
2023-03-29T18:44:14.675Z,1.85
2023-03-29T18:46:16.431Z,1.85
2023-03-29T18:48:18.130Z,1.80
2023-03-29T18:50:19.790Z,1.95
2023-03-29T18:52:21.745Z,1.35
2023-03-29T18:54:23.601Z,1.75
2023-03-29T18:56:25.832Z,1.48
2023-03-29T18:58:28.113Z,2.00
2023-03-29T19:00:29.882Z,1.50
2023-03-29T19:02:31.571Z,1.42
2023-03-29T19:04:33.341Z,1.65
2023-03-29T19:06:35.903Z,1.50
2023-03-29T19:08:39.788Z,1.80
2023-03-29T19:10:41.501Z,1.92
2023-03-29T19:12:43.261Z,1.80
2023-03-29T19:14:46.761Z,1.20
2023-03-29T19:16:48.456Z,1.15
2023-03-29T19:18:50.124Z,1.30
2023-03-29T19:20:53.928Z,4.43
2023-03-29T19:22:55.729Z,2.75
2023-03-29T19:24:57.447Z,2.22
2023-03-29T19:26:59.304Z,2.33
2023-03-29T19:29:01.297Z,1.60
2023-03-29T19:31:03.793Z,2.22
2023-03-29T19:33:05.648Z,1.85
2023-03-29T19:35:09.642Z,1.65
2023-03-29T19:37:11.737Z,1.27
2023-03-29T19:39:13.689Z,1.60
2023-03-29T19:41:15.426Z,1.70
2023-03-29T19:43:18.112Z,1.52
2023-03-29T19:45:19.813Z,2.30
2023-03-29T19:47:21.482Z,1.10
2023-03-29T19:49:23.438Z,1.65
2023-03-29T19:51:28.660Z,2.08
2023-03-29T19:53:31.286Z,1.40
2023-03-29T19:55:33.193Z,1.95
2023-03-29T19:57:34.938Z,1.60
2023-03-29T19:59:37.879Z,1.00
2023-03-29T20:01:42.752Z,1.33
2023-03-29T20:03:46.460Z,1.00
2023-03-29T20:05:48.254Z,1.50
2023-03-29T20:07:50.430Z,1.20
2023-03-29T20:09:52.161Z,1.10
2023-03-29T20:11:53.823Z,2.10
2023-03-29T20:13:55.523Z,1.98
2023-03-29T20:15:57.291Z,1.45
2023-03-29T20:18:00.393Z,1.35
2023-03-29T20:20:08.359Z,1.13
2023-03-29T20:22:11.279Z,1.05
2023-03-29T20:24:13.092Z,1.77
2023-03-29T20:26:15.413Z,2.10
2023-03-29T20:28:17.372Z,1.92
2023-03-29T20:30:19.204Z,1.50
2023-03-29T20:32:21.093Z,1.10
2023-03-29T20:34:22.901Z,1.40
2023-03-29T20:36:26.787Z,1.20
2023-03-29T20:38:28.549Z,1.33
2023-03-29T20:40:31.661Z,1.30
2023-03-29T20:42:34.613Z,1.23
2023-03-29T20:44:36.696Z,1.45
2023-03-29T20:46:38.470Z,1.25
2023-03-29T20:48:53.231Z,1.20
2023-03-29T20:50:55.471Z,1.52
2023-03-29T20:52:57.187Z,1.38
2023-03-29T20:54:59.317Z,1.30
2023-03-29T20:57:01.326Z,1.15
2023-03-29T20:59:04.059Z,1.48
2023-03-29T21:01:06.168Z,2.17
2023-03-29T21:03:08.634Z,3.10
2023-03-29T21:05:11.433Z,4.65
2023-03-29T21:07:17.112Z,2.35
2023-03-29T21:09:21.176Z,2.75
2023-03-29T21:11:23.055Z,1.50
2023-03-29T21:13:24.795Z,1.23
2023-03-29T21:15:28.718Z,1.65
2023-03-29T21:17:30.757Z,1.25
2023-03-29T21:19:32.586Z,1.40
2023-03-29T21:21:37.390Z,1.52
2023-03-29T21:23:39.746Z,1.80
2023-03-29T21:25:41.428Z,3.00
2023-03-29T21:27:43.478Z,1.35
2023-03-29T21:29:45.738Z,1.90
2023-03-29T21:31:47.418Z,1.85
2023-03-29T21:33:49.342Z,2.17
2023-03-29T21:35:51.164Z,1.80
2023-03-29T21:37:52.921Z,1.80
2023-03-29T21:39:54.635Z,2.00
2023-03-29T21:41:56.312Z,1.40
2023-03-29T21:43:58.098Z,1.80
2023-03-29T21:45:59.930Z,1.88
2023-03-29T21:48:01.656Z,1.60
2023-03-29T21:50:03.873Z,1.80
2023-03-29T21:52:05.530Z,1.75
2023-03-29T21:54:07.173Z,1.42
2023-03-29T21:56:09.451Z,2.53
2023-03-29T21:58:11.160Z,1.30
2023-03-29T22:00:15.539Z,1.30
2023-03-29T22:02:17.538Z,1.65
2023-03-29T22:04:35.319Z,1.65
2023-03-29T22:06:38.041Z,1.52
2023-03-29T22:08:39.745Z,1.80
2023-03-29T22:10:41.554Z,2.03
2023-03-29T22:12:43.661Z,1.90
2023-03-29T22:14:45.395Z,1.42
2023-03-29T22:16:47.313Z,1.60
2023-03-29T22:18:52.674Z,1.40
2023-03-29T22:20:54.363Z,1.52
2023-03-29T22:22:56.063Z,1.60
2023-03-29T22:24:57.702Z,1.50
2023-03-29T22:26:59.369Z,1.70
2023-03-29T22:29:01.690Z,2.15
2023-03-29T22:31:08.882Z,1.80
2023-03-29T22:33:11.249Z,1.73
2023-03-29T22:35:13.013Z,1.77
2023-03-29T22:37:14.900Z,2.15
2023-03-29T22:39:16.636Z,1.63
2023-03-29T22:41:19.004Z,1.30
2023-03-29T22:43:21.581Z,2.42
2023-03-29T22:45:23.612Z,1.33
2023-03-29T22:47:25.710Z,1.70
2023-03-29T22:49:27.838Z,2.03
2023-03-29T22:51:29.524Z,2.17
2023-03-29T22:53:31.782Z,2.22
2023-03-29T22:55:33.586Z,1.65
2023-03-29T22:57:35.518Z,1.30
2023-03-29T22:59:37.256Z,2.53
2023-03-29T23:01:38.990Z,1.30
2023-03-29T23:03:43.984Z,2.05
2023-03-29T23:05:53.534Z,2.03
2023-03-29T23:07:55.958Z,2.13
2023-03-29T23:09:57.760Z,2.50
2023-03-29T23:11:59.569Z,2.03
2023-03-29T23:14:04.180Z,1.77
2023-03-29T23:16:06.416Z,1.83
2023-03-29T23:18:08.170Z,2.45
2023-03-29T23:20:11.476Z,1.70
2023-03-29T23:22:13.662Z,1.85
2023-03-29T23:24:19.013Z,1.95
2023-03-29T23:26:21.121Z,2.10
2023-03-29T23:28:27.597Z,2.45
2023-03-29T23:30:32.337Z,1.95
2023-03-29T23:32:34.185Z,2.28
2023-03-29T23:34:36.043Z,2.50
2023-03-29T23:36:37.707Z,1.85
2023-03-29T23:38:39.900Z,1.70
2023-03-29T23:40:41.530Z,2.38
2023-03-29T23:42:45.498Z,1.85
2023-03-29T23:44:47.157Z,2.08
2023-03-29T23:46:48.971Z,2.83
2023-03-29T23:48:51.128Z,1.75
2023-03-29T23:50:53.063Z,1.75
2023-03-29T23:52:54.984Z,1.70
2023-03-29T23:55:00.916Z,1.55
2023-03-29T23:57:02.690Z,2.15
2023-03-29T23:59:04.673Z,2.08
